Palm Beach Shores, Florida
Current Conditions -  °F | °C
As of 2:53 AM on Thursday 29 Jan 2015 (Local Time) from KPBI Reporting Station
Broken Clouds Broken Clouds  
Wind Chill: 53°   Ceiling: 4300
Heat Index: 53°   Visibility: 10mi
Dew Point: 48°   Wind: 7mph
Humidity: 83%   Direction: 320°NW
Pressure: 30.18"   Gusts: NA
Location:  26.7789°N, 80.0745°W
Report Text: KPBI 290753Z 32006KT 10SM BKN043 12/09 A3018 RMK AO2 SLP220 T01170089
Loading
Personal Weather Stations






























Interactive Weather Map New forecast layout! Learn more

10-Day Weather Forecast

Advertisements
Track Severe Weather on mobile